Data for 03/07/2016

Time Sea-Level Adjusted Pressure Absolute Pressure Temperature Relative Humidity Dew Point   
(mb) (inHg) (mb) (inHg) (C) (F) (%) (C) (F)
00:05 1006 29.71 835 24.66 2.5 36.4 72 -2.2 28.1
00:10 1006 29.71 836 24.69 2.3 36.2 72 -2.3 27.9
00:15 1006 29.71 836 24.69 2.4 36.4 72 -2.1 28.3
00:20 1006 29.71 836 24.69 2.4 36.3 73 -1.9 28.5
00:25 1006 29.71 836 24.69 2.4 36.3 74 -1.7 28.9
00:30 1006 29.71 836 24.69 2.3 36.1 74 -2 28.5
00:35 1006 29.71 836 24.69 2.3 36.1 75 -1.8 28.8
00:40 1006 29.71 836 24.69 2.2 35.9 76 -1.7 29
00:45 1006 29.71 836 24.69 2.2 36 76 -1.6 29.1
00:50 1006 29.71 836 24.69 2.2 35.9 77 -1.4 29.4
00:55 1006 29.71 836 24.69 2.1 35.7 78 -1.3 29.7
01:00 1006 29.71 836 24.69 2 35.7 79 -1.3 29.7
01:05 1007 29.74 836 24.69 2.1 35.7 78 -1.4 29.5
01:10 1007 29.74 836 24.69 2.2 36 76 -1.6 29.1
01:15 1007 29.74 836 24.69 2.4 36.4 75 -1.5 29.4
01:20 1007 29.74 836 24.69 2.4 36.3 77 -1.3 29.7
01:25 1007 29.74 836 24.69 2.3 36.2 77 -1.3 29.7
01:30 1007 29.74 836 24.69 2.3 36.1 77 -1.4 29.5
01:35 1007 29.74 836 24.69 2.2 35.9 76 -1.7 29
01:40 1007 29.74 836 24.69 2.1 35.8 76 -1.8 28.8
01:45 1007 29.74 836 24.69 1.9 35.4 78 -1.6 29.2
01:50 1007 29.74 836 24.69 1.8 35.2 77 -1.9 28.7
01:55 1007 29.74 836 24.69 1.9 35.4 77 -1.8 28.8
02:00 1007 29.74 836 24.69 2 35.6 78 -1.5 29.3
02:05 1007 29.74 836 24.69 2 35.6 78 -1.4 29.5
02:10 1007 29.74 836 24.69 1.9 35.4 78 -1.6 29.1
02:15 1007 29.74 836 24.69 1.8 35.3 79 -1.4 29.4
02:20 1007 29.74 836 24.69 1.7 35.1 80 -1.4 29.5
02:25 1007 29.74 836 24.69 1.7 35.1 79 -1.4 29.4
02:30 1007 29.74 836 24.69 1.7 35.1 79 -1.5 29.4
02:35 1007 29.74 836 24.69 1.7 35.1 79 -1.6 29.2
02:40 1007 29.74 837 24.72 1.7 35 79 -1.5 29.2
02:45 1007 29.74 837 24.72 1.6 34.9 79 -1.6 29
02:50 1007 29.74 837 24.72 1.6 34.9 79 -1.7 29
02:55 1007 29.74 837 24.72 1.6 34.9 78 -1.8 28.8
03:00 1007 29.74 837 24.72 1.6 34.9 78 -1.8 28.7
03:05 1007 29.74 837 24.72 1.6 34.9 79 -1.7 28.9
03:10 1007 29.74 837 24.72 1.5 34.6 80 -1.7 29
03:15 1007 29.74 837 24.72 1.3 34.4 82 -1.5 29.3
03:20 1007 29.74 837 24.72 1.1 34 84 -1.3 29.7
03:25 1007 29.74 836 24.69 1 33.8 85 -1.3 29.7
03:30 1007 29.74 836 24.69 1 33.8 86 -1.1 30
03:35 1007 29.74 836 24.69 1 33.8 85 -1.2 29.8
03:40 1007 29.74 836 24.69 1 33.8 84 -1.5 29.3
03:45 1007 29.74 836 24.69 1 33.7 83 -1.7 29
03:50 1007 29.74 837 24.72 0.9 33.6 83 -1.7 29
03:55 1007 29.74 837 24.72 0.9 33.6 81 -2 28.5
04:00 1007 29.74 837 24.72 1 33.8 81 -1.8 28.7
04:05 1008 29.77 837 24.72 1.1 33.9 81 -1.8 28.7
04:10 1008 29.77 837 24.72 1.1 33.9 81 -1.9 28.6
04:15 1008 29.77 837 24.72 1.1 34 80 -1.9 28.5
04:20 1008 29.77 837 24.72 1.1 33.9 80 -2.1 28.3
04:25 1008 29.77 837 24.72 1 33.8 81 -1.9 28.5
04:30 1007 29.74 837 24.72 1 33.8 79 -2.3 27.9
04:35 1007 29.74 837 24.72 1.1 34 79 -2.1 28.2
04:40 1007 29.74 837 24.72 1 33.8 80 -2.1 28.2
04:45 1007 29.74 837 24.72 0.9 33.5 81 -2.1 28.3
04:50 1007 29.74 837 24.72 0.7 33.3 81 -2.1 28.2
04:55 1007 29.74 837 24.72 0.7 33.3 80 -2.3 27.8
05:00 1007 29.74 837 24.72 0.8 33.4 80 -2.2 28
05:05 1008 29.77 837 24.72 0.7 33.2 80 -2.4 27.7
05:10 1008 29.77 837 24.72 0.4 32.6 82 -2.3 27.8
05:15 1008 29.77 837 24.72 0.3 32.5 81 -2.6 27.4
05:20 1008 29.77 837 24.72 0.3 32.5 82 -2.5 27.5
05:25 1008 29.77 837 24.72 0.2 32.4 81 -2.6 27.2
05:30 1008 29.77 837 24.72 0.2 32.4 82 -2.6 27.3
05:35 1008 29.77 837 24.72 0 32 82 -2.8 27
05:40 1008 29.77 837 24.72 -0.1 31.8 82 -2.8 26.9
05:45 1008 29.77 837 24.72 -0.3 31.5 83 -2.9 26.8
05:50 1008 29.77 837 24.72 -0.5 31.1 83 -3 26.6
05:55 1008 29.77 837 24.72 -0.5 31 84 -3 26.7
06:00 1008 29.77 837 24.72 -0.4 31.2 83 -2.9 26.8
06:05 1008 29.77 837 24.72 -0.4 31.3 83 -2.9 26.7
06:10 1008 29.77 837 24.72 -0.6 30.9 84 -3 26.5
06:15 1008 29.77 837 24.72 -0.8 30.5 84 -3.1 26.4
06:20 1008 29.77 837 24.72 -0.9 30.4 85 -3.1 26.4
06:25 1008 29.77 837 24.72 -0.8 30.5 85 -3.1 26.5
06:30 1008 29.77 837 24.72 -0.9 30.3 85 -3.1 26.3
06:35 1008 29.77 837 24.72 -0.9 30.4 85 -3.1 26.5
06:40 1008 29.77 837 24.72 -0.7 30.8 84 -3 26.6
06:45 1008 29.77 837 24.72 -0.6 30.9 85 -2.9 26.8
06:50 1008 29.77 838 24.75 -0.7 30.8 85 -2.9 26.7
06:55 1008 29.77 838 24.75 -0.8 30.6 85 -3 26.5
07:00 1008 29.77 838 24.75 -0.8 30.6 84 -3.1 26.5
07:05 1008 29.77 838 24.75 -0.8 30.6 85 -3 26.6
07:10 1009 29.8 838 24.75 -0.6 30.9 84 -2.9 26.7
07:15 1008 29.77 838 24.75 -0.5 31.2 84 -2.9 26.8
07:20 1008 29.77 838 24.75 -0.4 31.3 84 -2.8 26.9
07:25 1008 29.77 838 24.75 -0.4 31.3 84 -2.8 27
07:30 1009 29.8 838 24.75 -0.4 31.3 84 -2.8 27
07:35 1009 29.8 838 24.75 -0.5 31.1 84 -2.9 26.8
07:40 1009 29.8 838 24.75 -0.7 30.8 84 -3 26.6
07:45 1009 29.8 838 24.75 -0.9 30.4 85 -3.1 26.5
07:50 1009 29.8 838 24.75 -1 30.2 86 -3 26.5
07:55 1009 29.8 838 24.75 -1 30.2 86 -3.1 26.5
08:00 1009 29.8 838 24.75 -1 30.1 86 -3.1 26.4
08:05 1009 29.8 838 24.75 -1.1 30 86 -3.2 26.3
08:10 1009 29.8 838 24.75 -1.1 30.1 85 -3.3 26.1
08:15 1009 29.8 838 24.75 -1 30.3 85 -3.1 26.4
08:20 1009 29.8 838 24.75 -0.8 30.6 84 -3.1 26.5
08:25 1009 29.8 838 24.75 -0.8 30.6 84 -3.2 26.2
08:30 1009 29.8 838 24.75 -0.9 30.3 84 -3.3 26.1
08:35 1009 29.8 838 24.75 -1 30.2 84 -3.4 25.9
08:40 1009 29.8 838 24.75 -1 30.2 84 -3.3 26
08:45 1009 29.8 839 24.78 -0.9 30.3 84 -3.4 26
08:50 1009 29.8 839 24.78 -1.1 30.1 84 -3.4 25.8
08:55 1010 29.83 839 24.78 -1.3 29.7 84 -3.6 25.6
09:00 1010 29.83 839 24.78 -1.3 29.7 85 -3.6 25.6
09:05 1010 29.83 839 24.78 -1.1 30.1 84 -3.4 25.8
09:10 1010 29.83 839 24.78 -0.8 30.5 83 -3.4 25.9
09:15 1010 29.83 839 24.78 -0.9 30.3 82 -3.6 25.5
09:20 1010 29.83 839 24.78 -1.5 29.3 84 -3.8 25.2
09:25 1010 29.83 839 24.78 -1.3 29.6 84 -3.7 25.3
09:30 1010 29.83 839 24.78 -1 30.3 83 -3.5 25.6
09:35 1010 29.83 839 24.78 -0.6 31 80 -3.6 25.5
09:40 1010 29.83 839 24.78 -0.1 31.9 78 -3.4 25.8
09:45 1010 29.83 839 24.78 0.6 33.1 75 -3.2 26.2
09:50 1010 29.83 839 24.78 1.5 34.8 73 -2.8 26.9
09:55 1010 29.83 839 24.78 2.5 36.5 71 -2.2 28
10:00 1010 29.83 839 24.78 3.5 38.3 69 -1.7 28.9
10:05 1010 29.83 839 24.78 3.8 38.8 65 -2.2 28.1
10:10 1010 29.83 839 24.78 3.4 38 68 -2.1 28.3
10:15 1010 29.83 839 24.78 3.4 38.2 72 -1.2 29.8
10:20 1010 29.83 839 24.78 3.4 38 65 -2.7 27.2
10:25 1010 29.83 839 24.78 3 37.5 68 -2.3 27.8
10:30 1010 29.83 839 24.78 2.8 37.1 65 -3.2 26.2
10:35 1010 29.83 840 24.81 2.7 36.8 66 -3 26.6
10:40 1010 29.83 840 24.81 2.7 36.8 64 -3.4 26
10:45 1010 29.83 840 24.81 2.4 36.3 63 -3.9 24.9
10:50 1010 29.83 840 24.81 2.1 35.8 66 -3.5 25.8
10:55 1010 29.83 840 24.81 2.5 36.5 61 -4.2 24.4
11:00 1010 29.83 840 24.81 2.8 37 61 -4 24.9
11:05 1010 29.83 840 24.81 3.2 37.8 60 -3.9 25.1
11:10 1010 29.83 840 24.81 3.2 37.8 60 -3.8 25.1
11:15 1010 29.83 840 24.81 3.5 38.3 59 -3.8 25.1
11:20 1010 29.83 840 24.81 4 39.2 55 -4.2 24.5
11:25 1010 29.83 840 24.81 4 39.3 58 -3.6 25.6
11:30 1011 29.85 840 24.81 4.4 39.8 55 -3.8 25.2
11:35 1011 29.85 840 24.81 4.2 39.6 55 -4 24.9
11:40 1011 29.85 840 24.81 4.5 40 54 -4.1 24.7
11:45 1011 29.85 840 24.81 4.5 40 55 -3.9 25
11:50 1011 29.85 840 24.81 4.2 39.5 55 -4.2 24.5
11:55 1011 29.85 840 24.81 4.7 40.4 52 -4.2 24.4
12:00 1011 29.85 840 24.81 5.1 41.2 52 -4 24.8
12:05 1011 29.85 840 24.81 5.3 41.5 52 -3.7 25.3
12:10 1011 29.85 840 24.81 5.2 41.4 54 -3.3 26
12:15 1011 29.85 840 24.81 4.8 40.6 52 -4.2 24.5
12:20 1011 29.85 840 24.81 4.7 40.4 53 -4.1 24.7
12:25 1011 29.85 840 24.81 3.8 38.9 56 -4.1 24.6
12:30 1011 29.85 840 24.81 3.7 38.7 54 -4.8 23.3
12:35 1011 29.85 840 24.81 4.8 40.6 51 -4.6 23.8
12:40 1011 29.85 840 24.81 5.2 41.4 49 -4.7 23.5
12:45 1011 29.85 840 24.81 5.5 42 48 -4.7 23.5
12:50 1010 29.83 840 24.81 6.2 43.1 47 -4.3 24.3
12:55 1010 29.83 840 24.81 6.7 44.1 45 -4.3 24.2
13:00 1010 29.83 840 24.81 6.6 43.9 45 -4.5 23.8
13:05 1010 29.83 840 24.81 6.6 43.9 44 -4.7 23.5
13:10 1010 29.83 839 24.78 6.8 44.2 42 -5.2 22.7
13:15 1010 29.83 839 24.78 7.4 45.2 40 -5.4 22.3
13:20 1010 29.83 839 24.78 7.2 44.9 39 -5.8 21.6
13:25 1010 29.83 839 24.78 6.6 43.8 40 -5.9 21.3
13:30 1010 29.83 839 24.78 7 44.7 39 -6 21.1
13:35 1010 29.83 839 24.78 7 44.5 42 -5.2 22.7
13:40 1010 29.83 839 24.78 6.9 44.5 38 -6.3 20.7
13:45 1010 29.83 839 24.78 7.6 45.6 37 -6.4 20.6
13:50 1010 29.83 839 24.78 7.6 45.7 37 -6.2 20.9
13:55 1010 29.83 839 24.78 8.1 46.5 32 -7.5 18.5
14:00 1010 29.83 839 24.78 8.5 47.2 31 -7.7 18.2
14:05 1010 29.83 839 24.78 8.5 47.2 30 -8.3 17
14:10 1010 29.83 839 24.78 8.3 47 33 -7.1 19.2
14:15 1010 29.83 839 24.78 8.4 47.1 30 -8.1 17.5
14:20 1010 29.83 839 24.78 8.5 47.3 30 -8.1 17.5
14:25 1010 29.83 839 24.78 8.2 46.8 31 -8 17.6
14:30 1010 29.83 839 24.78 7.6 45.7 33 -7.8 17.9
14:35 1010 29.83 839 24.78 6.6 43.9 36 -7.5 18.5
14:40 1010 29.83 839 24.78 7.8 46.1 31 -8.1 17.4
14:45 1010 29.83 839 24.78 8.7 47.6 30 -7.9 17.8
14:50 1010 29.83 839 24.78 9.1 48.3 30 -7.7 18.1
14:55 1010 29.83 839 24.78 8.2 46.8 30 -8.4 16.8
15:00 1010 29.83 839 24.78 8.7 47.6 30 -8.1 17.4
15:05 1009 29.8 839 24.78 8.9 48 30 -7.9 17.8
15:10 1009 29.8 839 24.78 8.8 47.8 30 -7.8 18
15:15 1009 29.8 839 24.78 8.2 46.8 31 -8 17.7
15:20 1009 29.8 839 24.78 8.3 46.9 31 -7.8 17.9
15:25 1009 29.8 839 24.78 8.1 46.6 31 -8.1 17.3
15:30 1009 29.8 839 24.78 8.7 47.6 29 -8.5 16.8
15:35 1009 29.8 839 24.78 8.5 47.2 30 -8.1 17.4
15:40 1009 29.8 839 24.78 8.1 46.5 31 -8.2 17.2
15:45 1009 29.8 839 24.78 8.4 47.1 30 -8 17.6
15:50 1009 29.8 839 24.78 8.8 47.8 29 -8.4 16.9
15:55 1009 29.8 839 24.78 9.1 48.3 29 -8.1 17.5
16:00 1009 29.8 839 24.78 8.7 47.7 31 -7.6 18.3
16:05 1009 29.8 839 24.78 8.6 47.5 33 -6.7 19.9
16:10 1009 29.8 839 24.78 8 46.4 32 -7.5 18.5
16:15 1010 29.83 839 24.78 8.7 47.6 30 -7.9 17.8
16:20 1010 29.83 839 24.78 8.4 47.2 31 -7.9 17.8
16:25 1010 29.83 839 24.78 8.9 47.9 30 -7.8 17.9
16:30 1010 29.83 839 24.78 8.4 47.1 30 -8 17.6
16:35 1010 29.83 839 24.78 8.8 47.9 29 -8.4 16.9
16:40 1010 29.83 839 24.78 9.3 48.8 29 -7.8 18
16:45 1010 29.83 839 24.78 8.6 47.5 30 -8 17.6
16:50 1010 29.83 839 24.78 8.9 48.1 30 -7.5 18.4
16:55 1010 29.83 839 24.78 8.6 47.5 30 -8.1 17.5
17:00 1010 29.83 839 24.78 8.1 46.6 30 -8.3 17.1
17:05 1010 29.83 839 24.78 7.8 46 30 -8.8 16.2
17:10 1010 29.83 839 24.78 8.1 46.5 28 -9.5 14.9
17:15 1010 29.83 839 24.78 8.9 48 26 -9.4 15
17:20 1010 29.83 839 24.78 9.3 48.7 26 -9.5 14.9
17:25 1010 29.83 839 24.78 8.9 48.1 26 -9.6 14.7
17:30 1010 29.83 839 24.78 8.9 47.9 27 -9.1 15.6
17:35 1010 29.83 839 24.78 9.1 48.4 27 -9 15.8
17:40 1010 29.83 839 24.78 9.1 48.3 27 -9 15.9
17:45 1010 29.83 839 24.78 9.4 48.9 26 -9 15.8
17:50 1010 29.83 839 24.78 9.4 48.8 27 -8.8 16.2
17:55 1010 29.83 839 24.78 8.9 48.1 27 -8.9 16
18:00 1010 29.83 839 24.78 8.8 47.8 28 -8.8 16.1
18:05 1010 29.83 839 24.78 8.6 47.4 29 -8.7 16.4
18:10 1010 29.83 839 24.78 8.3 47 28 -8.9 15.9
18:15 1010 29.83 839 24.78 8.4 47.1 29 -8.8 16.2
18:20 1010 29.83 839 24.78 8.7 47.6 28 -8.8 16.1
18:25 1010 29.83 839 24.78 8.5 47.2 30 -8 17.5
18:30 1010 29.83 839 24.78 8 46.3 31 -8.2 17.2
18:35 1010 29.83 839 24.78 7.3 45.2 31 -8.7 16.3
18:40 1010 29.83 839 24.78 6.9 44.5 31 -8.9 15.9
18:45 1010 29.83 840 24.81 7.1 44.9 31 -8.7 16.4
18:50 1010 29.83 840 24.81 7.2 44.9 32 -8.2 17.2
18:55 1010 29.83 840 24.81 7.2 44.9 31 -8.7 16.4
19:00 1010 29.83 840 24.81 6.8 44.2 32 -8.7 16.4
19:05 1011 29.85 840 24.81 6.5 43.7 33 -8.8 16.2
19:10 1011 29.85 840 24.81 6.2 43.2 33 -8.8 16.2
19:15 1011 29.85 840 24.81 6.1 42.9 34 -8.7 16.4
19:20 1011 29.85 840 24.81 5.9 42.7 35 -8.5 16.7
19:25 1011 29.85 840 24.81 5.9 42.6 34 -8.9 16
19:30 1011 29.85 840 24.81 5.8 42.5 35 -8.6 16.5
19:35 1011 29.85 840 24.81 5.7 42.3 36 -8.4 16.9
19:40 1011 29.85 840 24.81 5.5 41.9 41 -6.8 19.7
19:45 1011 29.85 840 24.81 4.9 40.8 51 -4.5 23.9
19:50 1011 29.85 840 24.81 4 39.3 55 -4.1 24.6
19:55 1011 29.85 840 24.81 3.7 38.6 57 -4.1 24.6
20:00 1011 29.85 840 24.81 3.3 38 58 -4.2 24.5
20:05 1011 29.85 840 24.81 2.9 37.3 59 -4.2 24.4
20:10 1011 29.85 840 24.81 2.7 36.8 59 -4.5 24
20:15 1011 29.85 840 24.81 2.6 36.6 60 -4.5 24
20:20 1011 29.85 840 24.81 2.3 36.2 61 -4.5 24
20:25 1011 29.85 840 24.81 2.2 36 61 -4.4 24
20:30 1011 29.85 841 24.83 2 35.6 62 -4.6 23.8
20:35 1011 29.85 841 24.83 1.8 35.3 62 -4.8 23.3
20:40 1011 29.85 841 24.83 1.6 35 61 -5 23
20:45 1011 29.85 841 24.83 1.4 34.6 61 -5.3 22.4
20:50 1011 29.85 841 24.83 1.3 34.4 60 -5.5 22
20:55 1011 29.85 841 24.83 1.2 34.2 61 -5.5 22.1
21:00 1011 29.85 841 24.83 1.1 33.9 61 -5.6 22
21:05 1011 29.85 841 24.83 1.2 34.2 60 -5.8 21.6
21:10 1011 29.85 841 24.83 1.4 34.6 58 -6 21.2
21:15 1012 29.88 841 24.83 1.7 35 58 -5.8 21.6
21:20 1012 29.88 841 24.83 1.5 34.6 59 -5.7 21.8
21:25 1012 29.88 841 24.83 1.1 34 62 -5.4 22.2
21:30 1012 29.88 841 24.83 0.8 33.5 63 -5.5 22
21:35 1012 29.88 841 24.83 0.7 33.3 63 -5.5 22.2
21:40 1012 29.88 841 24.83 0.6 33.1 63 -5.7 21.8
21:45 1012 29.88 841 24.83 0.6 33 61 -6.1 21.1
21:50 1012 29.88 841 24.83 0.7 33.3 62 -5.8 21.5
21:55 1012 29.88 841 24.83 0.7 33.3 63 -5.6 21.9
22:00 1012 29.88 841 24.83 0.7 33.2 62 -5.8 21.6
22:05 1012 29.88 841 24.83 0.7 33.2 62 -5.7 21.7
22:10 1012 29.88 841 24.83 0.6 33.1 62 -5.8 21.5
22:15 1012 29.88 841 24.83 0.6 33 62 -5.8 21.5
22:20 1012 29.88 841 24.83 0.4 32.8 63 -5.8 21.6
22:25 1012 29.88 841 24.83 0.4 32.8 62 -6 21.2
22:30 1012 29.88 841 24.83 0.5 32.9 62 -6 21.2
22:35 1012 29.88 841 24.83 0.4 32.8 61 -6.2 20.8
22:40 1012 29.88 841 24.83 0.4 32.7 61 -6.2 20.8
22:45 1012 29.88 841 24.83 0.3 32.6 62 -6.2 20.8
22:50 1012 29.88 841 24.83 0.3 32.5 61 -6.3 20.7
22:55 1012 29.88 841 24.83 0.3 32.5 62 -6.1 21
23:00 1012 29.88 841 24.83 0.1 32.1 63 -6.1 21
23:05 1012 29.88 841 24.83 0 32 61 -6.7 20
23:10 1012 29.88 841 24.83 0.3 32.5 61 -6.4 20.4
23:15 1012 29.88 841 24.83 0.2 32.4 61 -6.4 20.4
23:20 1012 29.88 841 24.83 0.1 32.2 61 -6.6 20.1
23:25 1012 29.88 841 24.83 -0 31.9 62 -6.5 20.3
23:30 1012 29.88 841 24.83 -0.3 31.5 62 -6.6 20.1
23:35 1012 29.88 841 24.83 -0.3 31.5 61 -6.9 19.5
23:40 1012 29.88 841 24.83 -0.2 31.7 59 -7.2 19
23:45 1012 29.88 841 24.83 -0.1 31.9 60 -7 19.5
23:50 1012 29.88 841 24.83 -0.1 31.8 60 -7 19.5
23:55 1012 29.88 842 24.86 -0.1 31.8 59 -7.2 19
24:00 1012 29.88 842 24.86 0.1 32.1 58 -7.3 18.8